createdAt,value
2019-04-05T00:02:25.613Z,98518.39
2019-04-05T00:04:59.587Z,98514.79
2019-04-05T00:07:33.110Z,98510.44
2019-04-05T00:10:07.245Z,98515.73
2019-04-05T00:12:41.158Z,98510.55
2019-04-05T00:15:16.190Z,98510.65
2019-04-05T00:17:50.158Z,98512.30
2019-04-05T00:20:24.153Z,98504.89
2019-04-05T00:22:58.154Z,98506.39
2019-04-05T00:25:32.013Z,98505.69
2019-04-05T00:28:05.227Z,98506.27
2019-04-05T00:30:39.471Z,98507.73
2019-04-05T00:33:12.953Z,98503.78
2019-04-05T00:35:46.759Z,98508.71
2019-04-05T00:38:19.945Z,98515.63
2019-04-05T00:40:54.029Z,98509.61
2019-04-05T00:43:27.785Z,98506.33
2019-04-05T00:46:02.025Z,98509.70
2019-04-05T00:48:35.924Z,98508.48
2019-04-05T00:51:10.503Z,98514.87
2019-04-05T00:53:44.046Z,98510.98
2019-04-05T00:56:17.999Z,98512.00
2019-04-05T00:58:51.719Z,98512.78
2019-04-05T01:01:25.224Z,98504.90
2019-04-05T01:03:59.241Z,98511.65
2019-04-05T01:06:33.349Z,98508.69
2019-04-05T01:09:08.136Z,98510.71
2019-04-05T01:11:42.066Z,98512.51
2019-04-05T01:14:16.107Z,98513.57
2019-04-05T01:16:49.830Z,98511.98
2019-04-05T01:19:26.567Z,98517.67
2019-04-05T01:22:02.297Z,98516.70
2019-04-05T01:24:36.298Z,98517.20
2019-04-05T01:27:10.694Z,98513.71
2019-04-05T01:29:44.578Z,98517.81
2019-04-05T01:32:17.854Z,98516.86
2019-04-05T01:34:51.468Z,98521.14
2019-04-05T01:37:26.349Z,98517.58
2019-04-05T01:40:00.777Z,98520.13
2019-04-05T01:42:35.349Z,98523.97
2019-04-05T01:45:09.494Z,98517.70
2019-04-05T01:47:44.020Z,98515.00
2019-04-05T01:50:17.407Z,98516.22
2019-04-05T01:52:51.657Z,98517.95
2019-04-05T01:55:25.709Z,98520.59
2019-04-05T01:57:59.751Z,98524.48
2019-04-05T02:00:33.376Z,98525.31
2019-04-05T02:03:07.162Z,98527.19
2019-04-05T02:05:40.731Z,98527.58
2019-04-05T02:08:14.911Z,98527.56
2019-04-05T02:10:48.711Z,98526.02
2019-04-05T02:13:21.577Z,98528.02
2019-04-05T02:16:05.743Z,98529.83
2019-04-05T02:18:29.610Z,98533.28
2019-04-05T02:21:03.698Z,98529.07
2019-04-05T02:23:37.373Z,98537.73
2019-04-05T02:26:11.495Z,98537.16
2019-04-05T02:28:45.633Z,98536.63
2019-04-05T02:31:19.719Z,98537.65
2019-04-05T02:33:53.251Z,98536.11
2019-04-05T02:36:27.565Z,98536.59
2019-04-05T02:39:00.684Z,98538.66
2019-04-05T02:41:35.398Z,98540.95
2019-04-05T02:44:12.161Z,98534.80
2019-04-05T02:46:47.894Z,98541.85
2019-04-05T02:49:23.733Z,98547.39
2019-04-05T02:51:59.730Z,98548.97
2019-04-05T02:54:34.253Z,98551.67
2019-04-05T02:57:08.276Z,98548.50
2019-04-05T02:59:42.670Z,98552.22
2019-04-05T03:02:15.885Z,98549.91
2019-04-05T03:04:49.773Z,98545.99
2019-04-05T03:07:23.882Z,98550.66
2019-04-05T03:09:59.239Z,98556.41
2019-04-05T03:12:34.249Z,98559.39
2019-04-05T03:15:08.402Z,98555.63
2019-04-05T03:17:42.892Z,98553.63
2019-04-05T03:20:16.142Z,98551.16
2019-04-05T03:22:50.411Z,98560.03
2019-04-05T03:25:24.559Z,98565.52
2019-04-05T03:27:58.685Z,98565.53
2019-04-05T03:30:32.234Z,98567.55
2019-04-05T03:33:05.773Z,98571.73
2019-04-05T03:35:40.522Z,98573.84
2019-04-05T03:38:14.328Z,98569.70
2019-04-05T03:40:48.791Z,98574.44
2019-04-05T03:43:22.318Z,98574.27
2019-04-05T03:45:56.626Z,98573.78
2019-04-05T03:48:30.760Z,98572.48
2019-04-05T03:51:04.769Z,98576.75
2019-04-05T03:53:38.128Z,98574.88
2019-04-05T03:56:11.630Z,98577.77
2019-04-05T03:58:45.238Z,98574.18
2019-04-05T04:01:19.305Z,98579.53
2019-04-05T04:03:53.412Z,98576.47
2019-04-05T04:06:27.759Z,98572.78
2019-04-05T04:09:01.344Z,98576.79
2019-04-05T04:11:35.659Z,98580.22
2019-04-05T04:14:10.135Z,98583.69
2019-04-05T04:16:43.570Z,98590.85
2019-04-05T04:19:17.687Z,98593.74
2019-04-05T04:22:24.667Z,98594.45
2019-04-05T04:24:58.538Z,98597.26
2019-04-05T04:27:32.647Z,98608.13
2019-04-05T04:30:05.757Z,98603.66
2019-04-05T04:32:40.007Z,98605.70
2019-04-05T04:35:13.603Z,98604.17
2019-04-05T04:37:47.855Z,98609.44
2019-04-05T04:40:21.938Z,98613.95
2019-04-05T04:42:56.300Z,98616.62
2019-04-05T04:45:30.703Z,98613.69
2019-04-05T04:48:04.685Z,98614.46
2019-04-05T04:50:39.653Z,98615.52
2019-04-05T04:53:13.150Z,98617.90
2019-04-05T04:55:46.798Z,98624.80
2019-04-05T04:58:20.338Z,98620.69
2019-04-05T05:00:54.893Z,98615.46
2019-04-05T05:03:29.065Z,98619.09
2019-04-05T05:06:02.908Z,98618.33
2019-04-05T05:08:36.832Z,98619.80
2019-04-05T05:11:14.709Z,98619.52
2019-04-05T05:13:46.703Z,98620.23
2019-04-05T05:16:21.134Z,98618.75
2019-04-05T05:18:54.482Z,98619.66
2019-04-05T05:21:29.091Z,98618.95
2019-04-05T05:24:03.274Z,98626.25
2019-04-05T05:26:37.201Z,98630.33
2019-04-05T05:29:10.696Z,98632.38
2019-04-05T05:31:44.788Z,98634.59
2019-04-05T05:34:18.047Z,98634.20
2019-04-05T05:36:52.160Z,98634.75
2019-04-05T05:39:26.401Z,98632.17
2019-04-05T05:41:59.737Z,98631.40
2019-04-05T05:44:34.499Z,98625.70
2019-04-05T05:47:08.180Z,98628.37
2019-04-05T05:49:42.550Z,98628.25
2019-04-05T05:52:16.642Z,98632.45
2019-04-05T05:54:49.959Z,98630.05
2019-04-05T05:57:23.172Z,98630.84
2019-04-05T05:59:58.477Z,98634.51
2019-04-05T06:02:32.475Z,98632.72
2019-04-05T06:05:06.286Z,98631.88
2019-04-05T06:07:40.433Z,98631.11
2019-04-05T06:10:13.689Z,98633.53
2019-04-05T06:12:47.840Z,98633.48
2019-04-05T06:15:21.206Z,98636.96
2019-04-05T06:18:04.564Z,98639.39
2019-04-05T06:20:30.691Z,98639.64
2019-04-05T06:23:03.949Z,98642.25
2019-04-05T06:25:37.787Z,98643.82
2019-04-05T06:28:11.083Z,98643.05
2019-04-05T06:30:44.819Z,98641.55
2019-04-05T06:33:30.942Z,98644.36
2019-04-05T06:35:54.842Z,98650.41
2019-04-05T06:38:28.974Z,98649.89
2019-04-05T06:41:02.675Z,98648.95
2019-04-05T06:43:36.759Z,98651.84
2019-04-05T06:46:10.769Z,98651.42
2019-04-05T06:48:44.915Z,98651.73
2019-04-05T06:51:18.596Z,98659.80
2019-04-05T06:53:52.399Z,98657.22
2019-04-05T06:56:26.105Z,98656.30
2019-04-05T06:59:00.145Z,98663.85
2019-04-05T07:01:33.405Z,98662.50
2019-04-05T07:04:07.109Z,98664.17
2019-04-05T07:06:40.708Z,98666.14
2019-04-05T07:09:13.562Z,98668.64
2019-04-05T07:11:45.588Z,98663.69
2019-04-05T07:14:18.886Z,98666.68
2019-04-05T07:16:51.803Z,98666.91
2019-04-05T07:19:24.728Z,98667.95
2019-04-05T07:21:57.204Z,98666.11
2019-04-05T07:24:30.677Z,98667.42
2019-04-05T07:27:03.899Z,98668.55
2019-04-05T07:29:38.093Z,98673.27
2019-04-05T07:32:10.982Z,98673.92
2019-04-05T07:34:43.374Z,98678.78
2019-04-05T07:37:15.880Z,98678.70
2019-04-05T07:39:48.873Z,98680.72
2019-04-05T07:42:22.738Z,98682.78
2019-04-05T07:44:55.164Z,98682.58
2019-04-05T07:47:28.508Z,98679.22
2019-04-05T07:50:00.892Z,98685.31
2019-04-05T07:52:33.793Z,98684.05
2019-04-05T07:55:06.608Z,98686.67
2019-04-05T07:57:39.664Z,98686.03
2019-04-05T08:00:20.834Z,98682.28
2019-04-05T08:02:54.508Z,98681.16
2019-04-05T08:05:28.291Z,98679.42
2019-04-05T08:08:03.288Z,98680.94
2019-04-05T08:10:37.931Z,98679.02
2019-04-05T08:13:10.988Z,98676.41
2019-04-05T08:15:44.232Z,98678.50
2019-04-05T08:18:17.221Z,98674.61
2019-04-05T08:20:49.644Z,98671.98
2019-04-05T08:23:22.499Z,98675.36
2019-04-05T08:25:56.187Z,98671.47
2019-04-05T08:28:29.792Z,98668.55
2019-04-05T08:31:02.906Z,98671.78
2019-04-05T08:33:36.553Z,98667.27
2019-04-05T08:36:10.209Z,98662.98
2019-04-05T08:38:43.125Z,98662.70
2019-04-05T08:41:15.539Z,98662.52
2019-04-05T08:43:48.496Z,98660.21
2019-04-05T08:46:22.611Z,98660.89
2019-04-05T08:48:56.378Z,98659.48
2019-04-05T08:51:30.123Z,98658.95
2019-04-05T08:54:04.100Z,98661.94
2019-04-05T08:56:37.500Z,98661.34
2019-04-05T08:59:11.640Z,98653.72
2019-04-05T09:01:45.852Z,98658.06
2019-04-05T09:04:20.396Z,98658.75
2019-04-05T09:06:54.145Z,98647.92
2019-04-05T09:09:28.506Z,98658.00
2019-04-05T09:12:02.623Z,98655.50
2019-04-05T09:14:35.952Z,98655.39
2019-04-05T09:17:09.737Z,98647.48
2019-04-05T09:19:43.318Z,98653.57
2019-04-05T09:22:17.432Z,98648.08
2019-04-05T09:24:51.524Z,98639.25
2019-04-05T09:27:25.428Z,98641.16
2019-04-05T09:29:59.542Z,98643.91
2019-04-05T09:32:33.302Z,98642.55
2019-04-05T09:35:08.661Z,98646.42
2019-04-05T09:37:42.708Z,98644.75
2019-04-05T09:40:16.923Z,98640.74
2019-04-05T09:42:50.619Z,98644.54
2019-04-05T09:45:24.358Z,98640.49
2019-04-05T09:47:57.826Z,98642.86
2019-04-05T09:50:30.836Z,98643.36
2019-04-05T09:53:04.926Z,98635.09
2019-04-05T09:55:38.732Z,98633.41
2019-04-05T09:58:13.121Z,98645.66
2019-04-05T10:00:46.429Z,98639.98
2019-04-05T10:03:20.225Z,98635.25
2019-04-05T10:05:53.868Z,98638.97
2019-04-05T10:08:27.119Z,98637.87
2019-04-05T10:11:01.672Z,98639.02
2019-04-05T10:13:35.994Z,98638.20
2019-04-05T10:16:09.807Z,98635.36
2019-04-05T10:18:43.741Z,98633.39
2019-04-05T10:21:17.543Z,98627.34
2019-04-05T10:23:50.973Z,98631.50
2019-04-05T10:26:25.266Z,98625.66
2019-04-05T10:28:59.478Z,98631.34
2019-04-05T10:31:34.063Z,98628.58
2019-04-05T10:34:08.324Z,98631.44
2019-04-05T10:36:42.516Z,98628.18
2019-04-05T10:39:16.245Z,98632.20
2019-04-05T10:42:02.386Z,98633.64
2019-04-05T10:44:25.485Z,98628.13
2019-04-05T10:46:59.098Z,98621.17
2019-04-05T10:49:33.072Z,98630.59
2019-04-05T10:52:05.512Z,98624.03
2019-04-05T10:54:38.793Z,98620.94
2019-04-05T10:57:11.134Z,98618.94
2019-04-05T10:59:43.605Z,98621.70
2019-04-05T11:02:17.052Z,98621.56
2019-04-05T11:04:50.003Z,98613.39
2019-04-05T11:07:23.716Z,98611.86
2019-04-05T11:09:56.652Z,98612.64
2019-04-05T11:12:29.949Z,98611.98
2019-04-05T11:15:02.454Z,98617.43
2019-04-05T11:17:35.266Z,98613.83
2019-04-05T11:20:20.701Z,98607.55
2019-04-05T11:22:42.439Z,98605.39
2019-04-05T11:25:15.477Z,98608.30
2019-04-05T11:27:47.495Z,98608.88
2019-04-05T11:30:49.892Z,98608.86
2019-04-05T11:33:23.470Z,98606.04
2019-04-05T11:35:57.949Z,98599.48
2019-04-05T11:38:32.314Z,98596.72
2019-04-05T11:41:04.913Z,98594.78
2019-04-05T11:43:38.484Z,98589.99
2019-04-05T11:46:12.337Z,98590.66
2019-04-05T11:48:45.150Z,98587.88
2019-04-05T11:51:17.723Z,98589.38
2019-04-05T11:53:50.120Z,98577.15
2019-04-05T11:56:23.137Z,98582.92
2019-04-05T11:58:56.252Z,98576.73
2019-04-05T12:01:33.409Z,98568.85
2019-04-05T12:04:06.194Z,98566.11
2019-04-05T12:06:39.966Z,98558.59
2019-04-05T12:09:12.962Z,98553.66
2019-04-05T12:11:46.510Z,98550.75
2019-04-05T12:14:29.618Z,98550.03
2019-04-05T12:16:53.773Z,98549.77
2019-04-05T12:19:26.094Z,98542.95
2019-04-05T12:21:58.556Z,98533.88
2019-04-05T12:24:32.643Z,98529.02
2019-04-05T12:27:06.640Z,98528.72
2019-04-05T12:29:39.313Z,98520.98
2019-04-05T12:32:13.463Z,98526.21
2019-04-05T12:34:46.639Z,98529.87
2019-04-05T12:37:21.848Z,98524.10
2019-04-05T12:39:53.812Z,98520.73
2019-04-05T12:42:27.305Z,98521.46
2019-04-05T12:45:01.822Z,98517.70
2019-04-05T12:47:35.704Z,98516.00
2019-04-05T12:50:10.132Z,98517.95
2019-04-05T12:52:44.164Z,98521.91
2019-04-05T12:55:18.067Z,98519.95
2019-04-05T12:57:51.404Z,98523.52
2019-04-05T13:00:26.075Z,98520.87
2019-04-05T13:03:00.547Z,98532.29
2019-04-05T13:05:34.585Z,98541.16
2019-04-05T13:08:07.362Z,98546.75
2019-04-05T13:10:41.184Z,98541.12
2019-04-05T13:13:14.867Z,98554.98
2019-04-05T13:15:48.607Z,98561.78
2019-04-05T13:18:21.638Z,98563.80
2019-04-05T13:20:55.263Z,98567.40
2019-04-05T13:23:29.440Z,98567.03
2019-04-05T13:26:03.640Z,98563.83
2019-04-05T13:28:37.909Z,98556.77
2019-04-05T13:31:11.925Z,98554.54
2019-04-05T13:33:45.587Z,98549.58
2019-04-05T13:36:19.745Z,98546.76
2019-04-05T13:38:54.989Z,98552.79
2019-04-05T13:41:31.310Z,98543.36
2019-04-05T13:44:03.062Z,98546.49
2019-04-05T13:46:39.065Z,98548.34
2019-04-05T13:49:11.696Z,98547.26
2019-04-05T13:51:45.729Z,98548.31
2019-04-05T13:54:19.738Z,98548.31
2019-04-05T13:56:53.476Z,98552.55
2019-04-05T13:59:27.050Z,98554.33
2019-04-05T14:02:06.011Z,98552.02
2019-04-05T14:04:36.117Z,98559.41
2019-04-05T14:07:09.304Z,98545.09
2019-04-05T14:09:43.421Z,98549.98
2019-04-05T14:12:17.089Z,98549.50
2019-04-05T14:14:51.535Z,98549.52
2019-04-05T14:17:25.179Z,98545.18
2019-04-05T14:19:58.416Z,98536.44
2019-04-05T14:22:31.643Z,98534.69
2019-04-05T14:25:05.699Z,98537.94
2019-04-05T14:27:39.481Z,98537.39
2019-04-05T14:30:13.916Z,98535.19
2019-04-05T14:32:50.763Z,98531.67
2019-04-05T14:35:25.333Z,98530.36
2019-04-05T14:37:59.686Z,98530.05
2019-04-05T14:40:33.787Z,98527.02
2019-04-05T14:43:08.032Z,98527.24
2019-04-05T14:45:41.812Z,98529.37
2019-04-05T14:48:14.236Z,98525.72
2019-04-05T14:50:46.301Z,98524.92
2019-04-05T14:53:19.143Z,98520.84
2019-04-05T14:55:51.603Z,98516.38
2019-04-05T14:58:23.514Z,98511.78
2019-04-05T15:00:57.413Z,98511.64
2019-04-05T15:03:29.786Z,98502.42
2019-04-05T15:06:03.591Z,98505.89
2019-04-05T15:08:35.993Z,98501.41
2019-04-05T15:11:11.099Z,98502.05
2019-04-05T15:13:43.482Z,98501.02
2019-04-05T15:16:15.954Z,98507.95
2019-04-05T15:18:49.651Z,98509.47
2019-04-05T15:21:22.517Z,98510.16
2019-04-05T15:23:56.749Z,98509.34
2019-04-05T15:26:30.321Z,98508.47
2019-04-05T15:29:03.250Z,98502.17
2019-04-05T15:31:35.609Z,98506.36
2019-04-05T15:34:08.571Z,98503.83
2019-04-05T15:36:41.242Z,98506.49
2019-04-05T15:39:13.308Z,98506.55
2019-04-05T15:41:46.248Z,98509.10
2019-04-05T15:44:18.935Z,98512.70
2019-04-05T15:46:51.318Z,98514.24
2019-04-05T15:49:24.983Z,98512.36
2019-04-05T15:51:59.171Z,98518.12
2019-04-05T15:54:33.428Z,98516.06
2019-04-05T15:57:06.539Z,98525.47
2019-04-05T15:59:39.033Z,98523.98
2019-04-05T16:02:11.970Z,98522.19
2019-04-05T16:04:45.782Z,98524.70
2019-04-05T16:07:18.174Z,98530.69
2019-04-05T16:09:51.521Z,98530.97
2019-04-05T16:12:23.972Z,98525.08
2019-04-05T16:14:56.860Z,98533.26
2019-04-05T16:17:29.326Z,98530.29
2019-04-05T16:20:02.334Z,98530.09
2019-04-05T16:22:35.935Z,98526.55
2019-04-05T16:25:10.152Z,98533.88
2019-04-05T16:27:43.587Z,98534.75
2019-04-05T16:30:16.956Z,98539.70
2019-04-05T16:32:50.321Z,98537.69
2019-04-05T16:35:22.278Z,98535.80
2019-04-05T16:37:55.539Z,98543.66
2019-04-05T16:40:31.090Z,98545.31
2019-04-05T16:43:03.245Z,98544.30
2019-04-05T16:45:38.475Z,98549.31
2019-04-05T16:48:10.628Z,98549.52
2019-04-05T16:50:42.993Z,98548.92
2019-04-05T16:53:15.980Z,98555.23
2019-04-05T16:55:48.436Z,98548.14
2019-04-05T16:58:20.864Z,98550.53
2019-04-05T17:00:53.363Z,98552.10
2019-04-05T17:03:26.257Z,98554.61
2019-04-05T17:05:59.314Z,98550.70
2019-04-05T17:08:31.734Z,98550.33
2019-04-05T17:11:04.237Z,98550.65
2019-04-05T17:13:37.544Z,98554.25
2019-04-05T17:16:12.468Z,98550.05
2019-04-05T17:18:45.786Z,98559.22
2019-04-05T17:21:18.682Z,98556.77
2019-04-05T17:23:51.936Z,98557.36
2019-04-05T17:26:26.570Z,98563.20
2019-04-05T17:29:00.579Z,98568.13
2019-04-05T17:31:34.271Z,98567.45
2019-04-05T17:34:07.988Z,98567.50
2019-04-05T17:36:41.796Z,98571.57
2019-04-05T17:39:15.929Z,98576.08
2019-04-05T17:41:49.601Z,98580.23
2019-04-05T17:44:23.340Z,98580.03
2019-04-05T17:46:56.944Z,98585.85
2019-04-05T17:49:31.030Z,98590.17
2019-04-05T17:52:04.752Z,98593.56
2019-04-05T17:54:38.379Z,98604.78
2019-04-05T17:57:12.684Z,98608.44
2019-04-05T17:59:47.653Z,98615.03
2019-04-05T18:02:21.931Z,98640.00
2019-04-05T18:04:55.617Z,98641.11
2019-04-05T18:07:29.756Z,98635.00
2019-04-05T18:10:03.369Z,98634.95
2019-04-05T18:12:37.061Z,98641.05
2019-04-05T18:15:10.483Z,98640.67
2019-04-05T18:17:44.264Z,98641.75
2019-04-05T18:20:18.045Z,98638.18
2019-04-05T18:22:51.721Z,98641.88
2019-04-05T18:25:25.854Z,98641.81
2019-04-05T18:27:58.731Z,98649.35
2019-04-05T18:30:30.730Z,98655.73
2019-04-05T18:33:04.845Z,98658.52
2019-04-05T18:35:37.750Z,98656.95
2019-04-05T18:38:10.720Z,98655.86
2019-04-05T18:40:44.170Z,98666.50
2019-04-05T18:43:17.039Z,98664.16
2019-04-05T18:45:49.915Z,98665.63
2019-04-05T18:48:23.307Z,98660.84
2019-04-05T18:50:55.259Z,98664.61
2019-04-05T18:53:37.677Z,98663.33
2019-04-05T18:56:04.071Z,98664.66
2019-04-05T18:58:36.083Z,98656.79
2019-04-05T19:01:08.535Z,98659.52
2019-04-05T19:03:41.084Z,98664.46
2019-04-05T19:06:13.992Z,98663.27
2019-04-05T19:08:45.991Z,98660.27
2019-04-05T19:11:18.400Z,98665.30
2019-04-05T19:14:00.581Z,98664.16
2019-04-05T19:16:25.055Z,98667.52
2019-04-05T19:18:58.357Z,98672.23
2019-04-05T19:21:31.587Z,98678.00
2019-04-05T19:24:04.028Z,98677.42
2019-04-05T19:26:37.016Z,98673.71
2019-04-05T19:29:09.518Z,98673.75
2019-04-05T19:49:45.396Z,98674.06
2019-04-05T19:52:18.012Z,98680.05
2019-04-05T19:54:50.778Z,98677.67
2019-04-05T19:57:24.043Z,98678.07
2019-04-05T19:59:56.846Z,98679.75
2019-04-05T20:02:29.929Z,98681.92
2019-04-05T20:05:02.341Z,98688.12
2019-04-05T20:07:36.044Z,98687.45
2019-04-05T20:10:09.031Z,98688.88
2019-04-05T20:12:41.412Z,98685.35
2019-04-05T20:15:20.124Z,98688.22
2019-04-05T20:17:53.944Z,98693.23
2019-04-05T20:20:27.420Z,98691.16
2019-04-05T20:23:01.961Z,98695.38
2019-04-05T20:25:34.338Z,98689.88
2019-04-05T20:28:06.847Z,98686.12
2019-04-05T20:30:46.858Z,98686.38
2019-04-05T20:33:20.544Z,98681.27
2019-04-05T20:35:53.870Z,98677.96
2019-04-05T20:38:27.204Z,98681.77
2019-04-05T20:41:00.791Z,98677.89
2019-04-05T20:43:34.667Z,98685.66
2019-04-05T20:46:09.589Z,98685.05
2019-04-05T20:48:43.174Z,98684.38
2019-04-05T20:51:16.324Z,98685.48
2019-04-05T20:53:50.489Z,98685.20
2019-04-05T20:56:24.055Z,98690.11
2019-04-05T20:58:58.169Z,98686.98
2019-04-05T21:01:31.883Z,98684.48
2019-04-05T21:04:05.509Z,98684.77
2019-04-05T21:06:39.078Z,98686.23
2019-04-05T21:09:13.657Z,98685.25
2019-04-05T21:11:47.628Z,98690.91
2019-04-05T21:14:21.245Z,98697.92
2019-04-05T21:16:55.458Z,98693.42
2019-04-05T21:19:29.495Z,98696.73
2019-04-05T21:22:03.686Z,98697.76
2019-04-05T21:24:36.840Z,98698.36
2019-04-05T21:27:12.690Z,98700.52
2019-04-05T21:29:47.027Z,98697.37
2019-04-05T21:32:21.169Z,98699.70
2019-04-05T21:34:55.248Z,98700.97
2019-04-05T21:37:28.883Z,98701.23
2019-04-05T21:40:02.077Z,98699.14
2019-04-05T21:42:35.754Z,98699.82
2019-04-05T21:45:08.739Z,98699.41
2019-04-05T21:47:42.747Z,98700.36
2019-04-05T21:50:16.685Z,98702.23
2019-04-05T21:52:50.872Z,98701.18
2019-04-05T21:55:24.510Z,98701.66
2019-04-05T21:57:58.718Z,98701.77
2019-04-05T22:00:43.893Z,98704.94
2019-04-05T22:03:17.981Z,98705.81
2019-04-05T22:05:51.576Z,98702.41
2019-04-05T22:08:25.422Z,98701.45
2019-04-05T22:10:59.071Z,98704.79
2019-04-05T22:13:32.856Z,98707.27
2019-04-05T22:16:06.397Z,98707.66
2019-04-05T22:18:40.111Z,98714.10
2019-04-05T22:21:14.121Z,98713.19
2019-04-05T22:23:48.392Z,98717.00
2019-04-05T22:26:22.159Z,98714.90
2019-04-05T22:28:55.351Z,98712.27
2019-04-05T22:31:29.364Z,98712.28
2019-04-05T22:34:03.998Z,98716.58
2019-04-05T22:36:37.690Z,98717.30
2019-04-05T22:39:12.404Z,98716.69
2019-04-05T22:41:46.127Z,98713.60
2019-04-05T22:44:20.340Z,98716.80
2019-04-05T22:46:54.434Z,98716.94
2019-04-05T22:49:28.248Z,98713.36
2019-04-05T22:52:02.244Z,98716.73
2019-04-05T22:54:35.988Z,98710.86
2019-04-05T22:57:09.132Z,98714.14
2019-04-05T22:59:43.192Z,98709.45
2019-04-05T23:02:16.736Z,98707.44
2019-04-05T23:04:50.998Z,98714.29
2019-04-05T23:07:25.137Z,98711.65
2019-04-05T23:09:58.822Z,98709.69
2019-04-05T23:12:32.726Z,98710.02
2019-04-05T23:15:06.716Z,98717.59
2019-04-05T23:17:40.314Z,98718.89
2019-04-05T23:20:15.786Z,98723.60
2019-04-05T23:22:48.957Z,98722.64
2019-04-05T23:25:22.970Z,98722.60
2019-04-05T23:27:56.665Z,98722.72
2019-04-05T23:30:31.217Z,98718.81
2019-04-05T23:33:04.719Z,98716.63
2019-04-05T23:35:38.326Z,98721.84
2019-04-05T23:38:11.921Z,98718.99
2019-04-05T23:40:45.899Z,98716.09
2019-04-05T23:43:19.504Z,98720.42
2019-04-05T23:45:52.829Z,98719.53
2019-04-05T23:48:27.042Z,98720.45
2019-04-05T23:51:01.165Z,98723.23
2019-04-05T23:53:34.450Z,98724.95
2019-04-05T23:56:07.328Z,98722.73
2019-04-05T23:58:41.108Z,98721.64
